Ultra Colonsay — 3EVT8 — position and weather

sailwx.info

Track history (hours):
 
Tides and Currents Weather Stations Pressure Air Temp Water Temp Dewpoint Dewpoint Depression Visibility Wind Speed Wind Dir Waves Ship Positions

Ultra Colonsay

Last reported at 2017-Oct-06 17:59 UTC. Time now 2017-Oct-18 11:32 UTC.
Position N 25°59' W 121°07'.
Warning: this ship's position is 11 days out of date.

Length 200 m; draft 12.3 m.

Type: Cargo ship. MMSI: 371011000.

Date/timePositionNaut miles runAvg speedWind from/ knotsBaromVisibWave heightAir tempDewpointWater temp
2017-Oct-06 17:59N 25°59' W 121°07'1213.8
2017-Oct-06 17:06N 26°10' W 121°14'213.6
2017-Oct-06 16:59N 26°12' W 121°14'713.7
2017-Oct-06 16:29N 26°18' W 121°18'5713.7
2017-Oct-06 12:22N 27°08' W 121°47'513.7
2017-Oct-06 12:00N 27°12' W 121°49'713.7
2017-Oct-06 11:30N 27°19' W 121°53'713.7
2017-Oct-06 11:00N 27°25' W 121°56'713.6
2017-Oct-06 10:30N 27°31' W 121°60'713.8
2017-Oct-06 10:01N 27°37' W 122°03'713.7
2017-Oct-06 09:30N 27°43' W 122°07'713.6
2017-Oct-06 09:00N 27°49' W 122°10'713.7
2017-Oct-06 08:28N 27°55' W 122°14'1013.7
2017-Oct-06 07:44N 28°05' W 122°19'313.8
2017-Oct-06 07:30N 28°07' W 122°21'4214.0
2017-Oct-06 04:31N 28°45' W 122°43'013.5
2017-Oct-06 04:30N 28°45' W 122°43'714.1
2017-Oct-06 04:00N 28°51' W 122°47'714.0
2017-Oct-06 03:30N 28°57' W 122°50'714.2
2017-Oct-06 03:00N 29°03' W 122°54'1114.2
2017-Oct-06 02:15N 29°13' W 122°60'414.3
2017-Oct-06 02:00N 29°16' W 123°02'714.1
2017-Oct-06 01:30N 29°22' W 123°05'1114.2
2017-Oct-06 00:42N 29°33' W 123°11'414.4
2017-Oct-06 00:27N 29°36' W 123°13'1114.3
2017-Oct-05 23:41N 29°45' W 123°19'514.4
2017-Oct-05 23:20N 29°50' W 123°21'514.4
2017-Oct-05 23:00N 29°54' W 123°24'714.3
2017-Oct-05 22:30N 30°01' W 123°28'5514.0
2017-Oct-05 18:34N 30°50' W 123°57'113.8
2017-Oct-05 18:30N 30°50' W 123°58'1713.7
2017-Oct-05 17:17N 31°05' W 124°06'413.7
2017-Oct-05 17:01N 31°09' W 124°08'2913.6
2017-Oct-05 14:55N 31°34' W 124°24'613.6
2017-Oct-05 14:31N 31°39' W 124°27'9113.8
2017-Oct-05 07:54N 33°00' W 125°16'613.9
2017-Oct-05 07:27N 33°06' W 125°20'613.9
2017-Oct-05 07:00N 33°11' W 125°23'814.0
2017-Oct-05 06:25N 33°19' W 125°27'19814.0
2017-Oct-04 16:11N 36°15' W 127°18'3113.9
2017-Oct-04 13:57N 36°43' W 127°36'2413.4
2017-Oct-04 12:08N 37°05' W 127°50'  
2017-Oct-02 01:56N 48°14' W 125°28'511.1
2017-Oct-02 01:30N 48°18' W 125°24'610.9
2017-Oct-02 00:55N 48°23' W 125°18'511.1
2017-Oct-02 00:30N 48°27' W 125°14'510.7
2017-Oct-01 23:59N 48°30' W 125°08'611.9
2017-Oct-01 23:29N 48°31' W 124°59'611.9
2017-Oct-01 23:00N 48°31' W 124°50'611.3
2017-Oct-01 22:30N 48°30' W 124°41'611.1
2017-Oct-01 22:00N 48°28' W 124°34'611.3
2017-Oct-01 21:30N 48°26' W 124°26'611.2
2017-Oct-01 21:00N 48°24' W 124°18'510.9
2017-Oct-01 20:30N 48°21' W 124°10'510.7
2017-Oct-01 20:00N 48°19' W 124°03'510.7
2017-Oct-01 19:30N 48°17' W 123°56'510.9
2017-Oct-01 19:00N 48°17' W 123°47'510.8
2017-Oct-01 18:30N 48°16' W 123°39'510.7
2017-Oct-01 18:00N 48°15' W 123°31'510.2
2017-Oct-01 17:30N 48°19' W 123°27'5 9.3
2017-Oct-01 17:00N 48°23' W 123°23'510.2
2017-Oct-01 16:30N 48°24' W 123°15'510.2
2017-Oct-01 16:00N 48°29' W 123°12'612.7
2017-Oct-01 15:30N 48°35' W 123°13'713.8
2017-Oct-01 15:00N 48°42' W 123°16'714.6
2017-Oct-01 14:30N 48°45' W 123°06'611.2
2017-Oct-01 14:00N 48°50' W 123°02'714.8
2017-Oct-01 13:30N 48°55' W 123°10'714.6
2017-Oct-01 13:00N 49°00' W 123°18'713.6
2017-Oct-01 12:30N 49°06' W 123°24'714.3
2017-Oct-01 12:00N 49°13' W 123°22'713.1
2017-Oct-01 11:30N 49°19' W 123°17'611.0
2017-Oct-01 11:00N 49°19' W 123°08'3 6.9
2017-Oct-01 10:31N 49°18' W 123°03'0 0.3
2017-Oct-01 09:59N 49°18' W 123°03'0 0.0
2017-Oct-01 09:29N 49°18' W 123°03'0 0.0
2017-Oct-01 08:59N 49°18' W 123°03'0 0.0
2017-Oct-01 08:29N 49°18' W 123°03'0 0.0
2017-Oct-01 07:59N 49°18' W 123°03'0 0.0
2017-Oct-01 07:29N 49°18' W 123°03'0 0.0
2017-Oct-01 06:59N 49°18' W 123°03'0 0.0
2017-Oct-01 06:29N 49°18' W 123°03'0 0.0
2017-Oct-01 05:59N 49°18' W 123°03'0 0.0
2017-Oct-01 05:29N 49°18' W 123°03'0 0.0
2017-Oct-01 04:59N 49°18' W 123°03'0 0.0
2017-Oct-01 04:29N 49°18' W 123°03'0 0.0
2017-Oct-01 03:59N 49°18' W 123°03'0 0.0
2017-Oct-01 03:29N 49°18' W 123°03'0 0.0
2017-Oct-01 02:59N 49°18' W 123°03'0 0.0
2017-Sep-30 01:59N 49°18' W 123°03'0 0.0
2017-Sep-30 01:29N 49°18' W 123°03'0 0.0
2017-Sep-30 00:59N 49°18' W 123°03'0 0.0
2017-Sep-30 00:29N 49°18' W 123°03'0 0.0
2017-Sep-29 23:59N 49°18' W 123°03'0 0.0
2017-Sep-29 23:29N 49°18' W 123°03'0 0.0
2017-Sep-29 22:59N 49°18' W 123°03'0 0.0
2017-Sep-29 22:29N 49°18' W 123°03'0 0.0
2017-Sep-29 21:59N 49°18' W 123°03'0 0.0
2017-Sep-29 21:29N 49°18' W 123°03'0 0.0
2017-Sep-29 20:59N 49°18' W 123°03'0 0.0
2017-Sep-29 20:29N 49°18' W 123°03'0 0.0
2017-Sep-29 19:59N 49°18' W 123°03'0 0.0
2017-Sep-29 19:29N 49°18' W 123°03'0 0.0
2017-Sep-29 18:59N 49°18' W 123°03'0 0.0
2017-Sep-29 18:29N 49°18' W 123°03'0 0.0
2017-Sep-29 17:59N 49°18' W 123°03'0 0.0
2017-Sep-29 17:29N 49°18' W 123°03'0 0.0
2017-Sep-29 16:59N 49°18' W 123°03'0 0.0
2017-Sep-29 16:29N 49°18' W 123°03'0 0.0
2017-Sep-29 15:59N 49°18' W 123°03'0 0.0
2017-Sep-29 15:29N 49°18' W 123°03'0 0.0
2017-Sep-29 14:59N 49°18' W 123°03'0 0.0
2017-Sep-29 14:29N 49°18' W 123°03'0 0.0
2017-Sep-29 13:56N 49°18' W 123°03'0 0.0
2017-Sep-29 13:26N 49°18' W 123°03'0 0.0
2017-Sep-29 12:59N 49°18' W 123°03'0 0.0
2017-Sep-29 12:26N 49°18' W 123°03'0 0.0
2017-Sep-29 11:59N 49°18' W 123°03'0 0.0
2017-Sep-29 11:29N 49°18' W 123°03'0 0.0
2017-Sep-29 10:59N 49°18' W 123°03'0 0.0
2017-Sep-29 10:29N 49°18' W 123°03'0 0.0
2017-Sep-29 09:59N 49°18' W 123°03'0 0.0
2017-Sep-29 09:29N 49°18' W 123°03'0 0.0
2017-Sep-29 08:59N 49°18' W 123°03'0 0.0
2017-Sep-29 08:29N 49°18' W 123°03'0 0.0
2017-Sep-29 07:59N 49°18' W 123°03'0 0.0
2017-Sep-29 07:29N 49°18' W 123°03'0 0.0
2017-Sep-29 06:59N 49°18' W 123°03'0 0.0
2017-Sep-29 06:26N 49°18' W 123°03'0 0.0
2017-Sep-29 05:59N 49°18' W 123°03'0 0.0
2017-Sep-29 05:29N 49°18' W 123°03'0 0.0
2017-Sep-29 04:59N 49°18' W 123°03'0 0.0
2017-Sep-29 04:29N 49°18' W 123°03'0 0.0
2017-Sep-29 03:59N 49°18' W 123°03'0 0.0
2017-Sep-29 03:29N 49°18' W 123°03'0 0.0
2017-Sep-29 02:59N 49°18' W 123°03'0 0.0
2017-Sep-29 02:29N 49°18' W 123°03'0 0.0
2017-Sep-29 01:59N 49°18' W 123°03'0 0.0
2017-Sep-29 01:29N 49°18' W 123°03'0 0.0
2017-Sep-29 00:59N 49°18' W 123°03'0 0.0
2017-Sep-29 00:29N 49°18' W 123°03'0 0.0
2017-Sep-28 23:59N 49°18' W 123°03'0 0.0
2017-Sep-28 23:29N 49°18' W 123°03'0 0.0
2017-Sep-28 22:59N 49°18' W 123°03'0 0.0
2017-Sep-28 22:29N 49°18' W 123°03'0 0.0
2017-Sep-28 21:59N 49°18' W 123°03'0 0.0
2017-Sep-28 21:29N 49°18' W 123°03'0 0.0
2017-Sep-28 20:56N 49°18' W 123°03'0 0.0
2017-Sep-28 20:26N 49°18' W 123°03'0 0.0
2017-Sep-28 19:59N 49°18' W 123°03'0 0.0
2017-Sep-28 19:29N 49°18' W 123°03'0 0.0
2017-Sep-28 18:59N 49°18' W 123°03'0 0.0
2017-Sep-28 18:29N 49°18' W 123°03'0 0.5
2017-Sep-28 18:00N 49°18' W 123°03'2 4.7
2017-Sep-28 17:30N 49°18' W 123°07'510.3
2017-Sep-28 17:00N 49°18' W 123°15'611.3
2017-Sep-28 16:30N 49°17' W 123°23'611.2
2017-Sep-28 16:00N 49°16' W 123°32'611.1
2017-Sep-28 15:30N 49°15' W 123°40'611.3
2017-Sep-28 15:00N 49°13' W 123°48'5 9.4
2017-Sep-28 14:30N 49°13' W 123°55'0 0.4
2017-Sep-28 13:57N 49°12' W 123°55'0 0.0
2017-Sep-28 13:30N 49°12' W 123°55'0 0.0
2017-Sep-28 13:00N 49°12' W 123°55'0 0.0
2017-Sep-28 12:30N 49°12' W 123°55'0 0.1
2017-Sep-28 11:57N 49°12' W 123°55'0 0.1
2017-Sep-28 11:27N 49°12' W 123°55'0 0.0
2017-Sep-28 10:57N 49°12' W 123°55'0 0.0
2017-Sep-28 10:30N 49°12' W 123°55'0 0.0
2017-Sep-28 10:00N 49°12' W 123°55'0 0.1
2017-Sep-28 09:30N 49°12' W 123°55'0 0.0
2017-Sep-28 09:00N 49°12' W 123°55'0 0.0
2017-Sep-28 08:30N 49°12' W 123°55'0 0.1
2017-Sep-28 07:57N 49°12' W 123°55'0 0.1
2017-Sep-28 07:30N 49°12' W 123°55'0 0.0
2017-Sep-28 07:00N 49°12' W 123°55'0 0.1
2017-Sep-28 06:30N 49°12' W 123°55'0 0.0
2017-Sep-28 06:00N 49°12' W 123°55'0 0.1
2017-Sep-28 05:24N 49°12' W 123°55'0 0.1
2017-Sep-28 05:00N 49°12' W 123°55'0 0.0
2017-Sep-28 04:30N 49°12' W 123°55'0 0.0
2017-Sep-28 04:00N 49°12' W 123°55'0 0.0
2017-Sep-28 03:30N 49°12' W 123°55'0 0.0
2017-Sep-28 03:00N 49°12' W 123°55'0 0.1
2017-Sep-28 02:30N 49°12' W 123°55'0 0.1
2017-Sep-28 02:00N 49°12' W 123°55'0 0.0
2017-Sep-28 01:30N 49°12' W 123°55'0 0.1
2017-Sep-28 00:48N 49°12' W 123°55'0 0.0
2017-Sep-28 00:27N 49°12' W 123°55'0 0.1
2017-Sep-28 00:00N 49°12' W 123°55'0 0.0
2017-Sep-27 23:24N 49°12' W 123°55'0 0.0
2017-Sep-27 22:54N 49°12' W 123°55'0 0.0
2017-Sep-27 22:30N 49°12' W 123°55'0 0.0
2017-Sep-27 21:57N 49°12' W 123°55'0 0.0
2017-Sep-27 21:30N 49°12' W 123°55'0 0.0
2017-Sep-27 20:57N 49°12' W 123°55'0 0.1
2017-Sep-27 20:24N 49°12' W 123°55'0 0.0
2017-Sep-27 20:00N 49°12' W 123°55'0 0.0
2017-Sep-27 19:29N 49°12' W 123°55'0 0.0
2017-Sep-27 18:53N 49°12' W 123°55'0 0.1
2017-Sep-27 18:27N 49°12' W 123°55'0 0.1
2017-Sep-27 18:00N 49°12' W 123°55'0 0.1
2017-Sep-27 17:30N 49°12' W 123°55'0 0.0
2017-Sep-27 16:56N 49°12' W 123°55'0 0.0
2017-Sep-27 16:29N 49°12' W 123°55'0 0.1
2017-Sep-27 16:00N 49°12' W 123°55'0 0.1
2017-Sep-27 15:30N 49°12' W 123°55'0 0.1
2017-Sep-27 15:00N 49°12' W 123°55'0 0.1
2017-Sep-27 14:30N 49°12' W 123°55'0 0.1
2017-Sep-27 14:00N 49°12' W 123°55'0 0.0
2017-Sep-27 13:30N 49°12' W 123°55'0 0.0
2017-Sep-27 13:00N 49°12' W 123°55'0 0.0
2017-Sep-27 12:27N 49°12' W 123°55'0 0.1
2017-Sep-27 11:59N 49°12' W 123°55'0 0.0
2017-Sep-27 11:30N 49°12' W 123°55'0 0.1
2017-Sep-27 10:59N 49°12' W 123°55'0 0.0
2017-Sep-27 10:29N 49°12' W 123°55'0 0.0
2017-Sep-27 10:00N 49°12' W 123°55'0 0.0
2017-Sep-27 09:30N 49°12' W 123°55'0 0.0
2017-Sep-27 09:00N 49°12' W 123°55'0 0.1
2017-Sep-27 08:27N 49°12' W 123°55'0 0.1
2017-Sep-27 07:50N 49°12' W 123°55'0 0.0
2017-Sep-27 07:30N 49°12' W 123°55'0 0.1
2017-Sep-27 06:59N 49°12' W 123°55'0 0.1
2017-Sep-27 06:23N 49°12' W 123°55'0 0.2
2017-Sep-27 05:54N 49°12' W 123°55'0 0.0
2017-Sep-27 05:30N 49°12' W 123°55'0 0.1
2017-Sep-27 04:56N 49°12' W 123°55'0 0.0
2017-Sep-27 04:27N 49°12' W 123°55'0 0.1
2017-Sep-27 03:50N 49°12' W 123°55'0 0.1
2017-Sep-27 03:29N 49°12' W 123°55'0 0.0
2017-Sep-27 02:45N 49°12' W 123°55'0 0.2
2017-Sep-27 02:29N 49°12' W 123°55'0 0.0
2017-Sep-27 01:59N 49°12' W 123°55'0 0.0
2017-Sep-27 01:29N 49°12' W 123°55'0 0.1
2017-Sep-27 00:59N 49°12' W 123°55'0 0.0
2017-Sep-27 00:26N 49°12' W 123°55'0 0.1
2017-Sep-26 23:59N 49°12' W 123°55'0 0.0
2017-Sep-26 23:29N 49°12' W 123°55'0 0.1
2017-Sep-26 22:59N 49°12' W 123°55'0 0.1
2017-Sep-26 22:23N 49°12' W 123°55'0 0.0
2017-Sep-26 21:59N 49°12' W 123°55'0 0.1
2017-Sep-26 21:29N 49°12' W 123°55'0 0.1
2017-Sep-26 20:56N 49°12' W 123°55'0 0.1
2017-Sep-26 20:26N 49°12' W 123°55'0 0.1
2017-Sep-26 19:59N 49°12' W 123°55'0 0.1
2017-Sep-26 19:29N 49°12' W 123°55'0 0.1
2017-Sep-26 18:59N 49°12' W 123°55'0 0.0
2017-Sep-26 18:26N 49°12' W 123°55'  
Track history (hours):
 
Tides and Currents Weather Stations Pressure Air Temp Water Temp Dewpoint Dewpoint Depression Visibility Wind Speed Wind Dir Waves Ship Positions

Ultra Colonsay

Last reported at 2017-Oct-06 17:59 UTC. Time now 2017-Oct-18 11:32 UTC.
Position N 25°59' W 121°07'.
Warning: this ship's position is 11 days out of date.

Length 200 m; draft 12.3 m.

Type: Cargo ship. MMSI: 371011000.

Date/timePositionNaut miles runAvg speedWind from/ knotsBaromVisibWave heightAir tempDewpointWater temp
2017-Oct-06 17:59N 25°59' W 121°07'1213.8
2017-Oct-06 17:06N 26°10' W 121°14'213.6
2017-Oct-06 16:59N 26°12' W 121°14'713.7
2017-Oct-06 16:29N 26°18' W 121°18'5713.7
2017-Oct-06 12:22N 27°08' W 121°47'513.7
2017-Oct-06 12:00N 27°12' W 121°49'713.7
2017-Oct-06 11:30N 27°19' W 121°53'713.7
2017-Oct-06 11:00N 27°25' W 121°56'713.6
2017-Oct-06 10:30N 27°31' W 121°60'713.8
2017-Oct-06 10:01N 27°37' W 122°03'713.7
2017-Oct-06 09:30N 27°43' W 122°07'713.6
2017-Oct-06 09:00N 27°49' W 122°10'713.7
2017-Oct-06 08:28N 27°55' W 122°14'1013.7
2017-Oct-06 07:44N 28°05' W 122°19'313.8
2017-Oct-06 07:30N 28°07' W 122°21'4214.0
2017-Oct-06 04:31N 28°45' W 122°43'013.5
2017-Oct-06 04:30N 28°45' W 122°43'714.1
2017-Oct-06 04:00N 28°51' W 122°47'714.0
2017-Oct-06 03:30N 28°57' W 122°50'714.2
2017-Oct-06 03:00N 29°03' W 122°54'1114.2
2017-Oct-06 02:15N 29°13' W 122°60'414.3
2017-Oct-06 02:00N 29°16' W 123°02'714.1
2017-Oct-06 01:30N 29°22' W 123°05'1114.2
2017-Oct-06 00:42N 29°33' W 123°11'414.4
2017-Oct-06 00:27N 29°36' W 123°13'1114.3
2017-Oct-05 23:41N 29°45' W 123°19'514.4
2017-Oct-05 23:20N 29°50' W 123°21'514.4
2017-Oct-05 23:00N 29°54' W 123°24'714.3
2017-Oct-05 22:30N 30°01' W 123°28'5514.0
2017-Oct-05 18:34N 30°50' W 123°57'113.8
2017-Oct-05 18:30N 30°50' W 123°58'1713.7
2017-Oct-05 17:17N 31°05' W 124°06'413.7
2017-Oct-05 17:01N 31°09' W 124°08'2913.6
2017-Oct-05 14:55N 31°34' W 124°24'613.6
2017-Oct-05 14:31N 31°39' W 124°27'9113.8
2017-Oct-05 07:54N 33°00' W 125°16'613.9
2017-Oct-05 07:27N 33°06' W 125°20'613.9
2017-Oct-05 07:00N 33°11' W 125°23'814.0
2017-Oct-05 06:25N 33°19' W 125°27'19814.0
2017-Oct-04 16:11N 36°15' W 127°18'3113.9
2017-Oct-04 13:57N 36°43' W 127°36'2413.4
2017-Oct-04 12:08N 37°05' W 127°50'  
2017-Oct-02 01:56N 48°14' W 125°28'511.1
2017-Oct-02 01:30N 48°18' W 125°24'610.9
2017-Oct-02 00:55N 48°23' W 125°18'511.1
2017-Oct-02 00:30N 48°27' W 125°14'510.7
2017-Oct-01 23:59N 48°30' W 125°08'611.9
2017-Oct-01 23:29N 48°31' W 124°59'611.9
2017-Oct-01 23:00N 48°31' W 124°50'611.3
2017-Oct-01 22:30N 48°30' W 124°41'611.1
2017-Oct-01 22:00N 48°28' W 124°34'611.3
2017-Oct-01 21:30N 48°26' W 124°26'611.2
2017-Oct-01 21:00N 48°24' W 124°18'510.9
2017-Oct-01 20:30N 48°21' W 124°10'510.7
2017-Oct-01 20:00N 48°19' W 124°03'510.7
2017-Oct-01 19:30N 48°17' W 123°56'510.9
2017-Oct-01 19:00N 48°17' W 123°47'510.8
2017-Oct-01 18:30N 48°16' W 123°39'510.7
2017-Oct-01 18:00N 48°15' W 123°31'510.2
2017-Oct-01 17:30N 48°19' W 123°27'5 9.3
2017-Oct-01 17:00N 48°23' W 123°23'510.2
2017-Oct-01 16:30N 48°24' W 123°15'510.2
2017-Oct-01 16:00N 48°29' W 123°12'612.7
2017-Oct-01 15:30N 48°35' W 123°13'713.8
2017-Oct-01 15:00N 48°42' W 123°16'714.6
2017-Oct-01 14:30N 48°45' W 123°06'611.2
2017-Oct-01 14:00N 48°50' W 123°02'714.8
2017-Oct-01 13:30N 48°55' W 123°10'714.6
2017-Oct-01 13:00N 49°00' W 123°18'713.6
2017-Oct-01 12:30N 49°06' W 123°24'714.3
2017-Oct-01 12:00N 49°13' W 123°22'713.1
2017-Oct-01 11:30N 49°19' W 123°17'611.0
2017-Oct-01 11:00N 49°19' W 123°08'3 6.9
2017-Oct-01 10:31N 49°18' W 123°03'0 0.3
2017-Oct-01 09:59N 49°18' W 123°03'0 0.0
2017-Oct-01 09:29N 49°18' W 123°03'0 0.0
2017-Oct-01 08:59N 49°18' W 123°03'0 0.0
2017-Oct-01 08:29N 49°18' W 123°03'0 0.0
2017-Oct-01 07:59N 49°18' W 123°03'0 0.0
2017-Oct-01 07:29N 49°18' W 123°03'0 0.0
2017-Oct-01 06:59N 49°18' W 123°03'0 0.0
2017-Oct-01 06:29N 49°18' W 123°03'0 0.0
2017-Oct-01 05:59N 49°18' W 123°03'0 0.0
2017-Oct-01 05:29N 49°18' W 123°03'0 0.0
2017-Oct-01 04:59N 49°18' W 123°03'0 0.0
2017-Oct-01 04:29N 49°18' W 123°03'0 0.0
2017-Oct-01 03:59N 49°18' W 123°03'0 0.0
2017-Oct-01 03:29N 49°18' W 123°03'0 0.0
2017-Oct-01 02:59N 49°18' W 123°03'0 0.0
2017-Sep-30 01:59N 49°18' W 123°03'0 0.0
2017-Sep-30 01:29N 49°18' W 123°03'0 0.0
2017-Sep-30 00:59N 49°18' W 123°03'0 0.0
2017-Sep-30 00:29N 49°18' W 123°03'0 0.0
2017-Sep-29 23:59N 49°18' W 123°03'0 0.0
2017-Sep-29 23:29N 49°18' W 123°03'0 0.0
2017-Sep-29 22:59N 49°18' W 123°03'0 0.0
2017-Sep-29 22:29N 49°18' W 123°03'0 0.0
2017-Sep-29 21:59N 49°18' W 123°03'0 0.0
2017-Sep-29 21:29N 49°18' W 123°03'0 0.0
2017-Sep-29 20:59N 49°18' W 123°03'0 0.0
2017-Sep-29 20:29N 49°18' W 123°03'0 0.0
2017-Sep-29 19:59N 49°18' W 123°03'0 0.0
2017-Sep-29 19:29N 49°18' W 123°03'0 0.0
2017-Sep-29 18:59N 49°18' W 123°03'0 0.0
2017-Sep-29 18:29N 49°18' W 123°03'0 0.0
2017-Sep-29 17:59N 49°18' W 123°03'0 0.0
2017-Sep-29 17:29N 49°18' W 123°03'0 0.0
2017-Sep-29 16:59N 49°18' W 123°03'0 0.0
2017-Sep-29 16:29N 49°18' W 123°03'0 0.0
2017-Sep-29 15:59N 49°18' W 123°03'0 0.0
2017-Sep-29 15:29N 49°18' W 123°03'0 0.0
2017-Sep-29 14:59N 49°18' W 123°03'0 0.0
2017-Sep-29 14:29N 49°18' W 123°03'0 0.0
2017-Sep-29 13:56N 49°18' W 123°03'0 0.0
2017-Sep-29 13:26N 49°18' W 123°03'0 0.0
2017-Sep-29 12:59N 49°18' W 123°03'0 0.0
2017-Sep-29 12:26N 49°18' W 123°03'0 0.0
2017-Sep-29 11:59N 49°18' W 123°03'0 0.0
2017-Sep-29 11:29N 49°18' W 123°03'0 0.0
2017-Sep-29 10:59N 49°18' W 123°03'0 0.0
2017-Sep-29 10:29N 49°18' W 123°03'0 0.0
2017-Sep-29 09:59N 49°18' W 123°03'0 0.0
2017-Sep-29 09:29N 49°18' W 123°03'0 0.0
2017-Sep-29 08:59N 49°18' W 123°03'0 0.0
2017-Sep-29 08:29N 49°18' W 123°03'0 0.0
2017-Sep-29 07:59N 49°18' W 123°03'0 0.0
2017-Sep-29 07:29N 49°18' W 123°03'0 0.0
2017-Sep-29 06:59N 49°18' W 123°03'0 0.0
2017-Sep-29 06:26N 49°18' W 123°03'0 0.0
2017-Sep-29 05:59N 49°18' W 123°03'0 0.0
2017-Sep-29 05:29N 49°18' W 123°03'0 0.0
2017-Sep-29 04:59N 49°18' W 123°03'0 0.0
2017-Sep-29 04:29N 49°18' W 123°03'0 0.0
2017-Sep-29 03:59N 49°18' W 123°03'0 0.0
2017-Sep-29 03:29N 49°18' W 123°03'0 0.0
2017-Sep-29 02:59N 49°18' W 123°03'0 0.0
2017-Sep-29 02:29N 49°18' W 123°03'0 0.0
2017-Sep-29 01:59N 49°18' W 123°03'0 0.0
2017-Sep-29 01:29N 49°18' W 123°03'0 0.0
2017-Sep-29 00:59N 49°18' W 123°03'0 0.0
2017-Sep-29 00:29N 49°18' W 123°03'0 0.0
2017-Sep-28 23:59N 49°18' W 123°03'0 0.0
2017-Sep-28 23:29N 49°18' W 123°03'0 0.0
2017-Sep-28 22:59N 49°18' W 123°03'0 0.0
2017-Sep-28 22:29N 49°18' W 123°03'0 0.0
2017-Sep-28 21:59N 49°18' W 123°03'0 0.0
2017-Sep-28 21:29N 49°18' W 123°03'0 0.0
2017-Sep-28 20:56N 49°18' W 123°03'0 0.0
2017-Sep-28 20:26N 49°18' W 123°03'0 0.0
2017-Sep-28 19:59N 49°18' W 123°03'0 0.0
2017-Sep-28 19:29N 49°18' W 123°03'0 0.0
2017-Sep-28 18:59N 49°18' W 123°03'0 0.0
2017-Sep-28 18:29N 49°18' W 123°03'0 0.5
2017-Sep-28 18:00N 49°18' W 123°03'2 4.7
2017-Sep-28 17:30N 49°18' W 123°07'510.3
2017-Sep-28 17:00N 49°18' W 123°15'611.3
2017-Sep-28 16:30N 49°17' W 123°23'611.2
2017-Sep-28 16:00N 49°16' W 123°32'611.1
2017-Sep-28 15:30N 49°15' W 123°40'611.3
2017-Sep-28 15:00N 49°13' W 123°48'5 9.4
2017-Sep-28 14:30N 49°13' W 123°55'0 0.4
2017-Sep-28 13:57N 49°12' W 123°55'0 0.0
2017-Sep-28 13:30N 49°12' W 123°55'0 0.0
2017-Sep-28 13:00N 49°12' W 123°55'0 0.0
2017-Sep-28 12:30N 49°12' W 123°55'0 0.1
2017-Sep-28 11:57N 49°12' W 123°55'0 0.1
2017-Sep-28 11:27N 49°12' W 123°55'0 0.0
2017-Sep-28 10:57N 49°12' W 123°55'0 0.0
2017-Sep-28 10:30N 49°12' W 123°55'0 0.0
2017-Sep-28 10:00N 49°12' W 123°55'0 0.1
2017-Sep-28 09:30N 49°12' W 123°55'0 0.0
2017-Sep-28 09:00N 49°12' W 123°55'0 0.0
2017-Sep-28 08:30N 49°12' W 123°55'0 0.1
2017-Sep-28 07:57N 49°12' W 123°55'0 0.1
2017-Sep-28 07:30N 49°12' W 123°55'0 0.0
2017-Sep-28 07:00N 49°12' W 123°55'0 0.1
2017-Sep-28 06:30N 49°12' W 123°55'0 0.0
2017-Sep-28 06:00N 49°12' W 123°55'0 0.1
2017-Sep-28 05:24N 49°12' W 123°55'0 0.1
2017-Sep-28 05:00N 49°12' W 123°55'0 0.0
2017-Sep-28 04:30N 49°12' W 123°55'0 0.0
2017-Sep-28 04:00N 49°12' W 123°55'0 0.0
2017-Sep-28 03:30N 49°12' W 123°55'0 0.0
2017-Sep-28 03:00N 49°12' W 123°55'0 0.1
2017-Sep-28 02:30N 49°12' W 123°55'0 0.1
2017-Sep-28 02:00N 49°12' W 123°55'0 0.0
2017-Sep-28 01:30N 49°12' W 123°55'0 0.1
2017-Sep-28 00:48N 49°12' W 123°55'0 0.0
2017-Sep-28 00:27N 49°12' W 123°55'0 0.1
2017-Sep-28 00:00N 49°12' W 123°55'0 0.0
2017-Sep-27 23:24N 49°12' W 123°55'0 0.0
2017-Sep-27 22:54N 49°12' W 123°55'0 0.0
2017-Sep-27 22:30N 49°12' W 123°55'0 0.0
2017-Sep-27 21:57N 49°12' W 123°55'0 0.0
2017-Sep-27 21:30N 49°12' W 123°55'0 0.0
2017-Sep-27 20:57N 49°12' W 123°55'0 0.1
2017-Sep-27 20:24N 49°12' W 123°55'0 0.0
2017-Sep-27 20:00N 49°12' W 123°55'0 0.0
2017-Sep-27 19:29N 49°12' W 123°55'0 0.0
2017-Sep-27 18:53N 49°12' W 123°55'0 0.1
2017-Sep-27 18:27N 49°12' W 123°55'0 0.1
2017-Sep-27 18:00N 49°12' W 123°55'0 0.1
2017-Sep-27 17:30N 49°12' W 123°55'0 0.0
2017-Sep-27 16:56N 49°12' W 123°55'0 0.0
2017-Sep-27 16:29N 49°12' W 123°55'0 0.1
2017-Sep-27 16:00N 49°12' W 123°55'0 0.1
2017-Sep-27 15:30N 49°12' W 123°55'0 0.1
2017-Sep-27 15:00N 49°12' W 123°55'0 0.1
2017-Sep-27 14:30N 49°12' W 123°55'0 0.1
2017-Sep-27 14:00N 49°12' W 123°55'0 0.0
2017-Sep-27 13:30N 49°12' W 123°55'0 0.0
2017-Sep-27 13:00N 49°12' W 123°55'0 0.0
2017-Sep-27 12:27N 49°12' W 123°55'0 0.1
2017-Sep-27 11:59N 49°12' W 123°55'0 0.0
2017-Sep-27 11:30N 49°12' W 123°55'0 0.1
2017-Sep-27 10:59N 49°12' W 123°55'0 0.0
2017-Sep-27 10:29N 49°12' W 123°55'0 0.0
2017-Sep-27 10:00N 49°12' W 123°55'0 0.0
2017-Sep-27 09:30N 49°12' W 123°55'0 0.0
2017-Sep-27 09:00N 49°12' W 123°55'0 0.1
2017-Sep-27 08:27N 49°12' W 123°55'0 0.1
2017-Sep-27 07:50N 49°12' W 123°55'0 0.0
2017-Sep-27 07:30N 49°12' W 123°55'0 0.1
2017-Sep-27 06:59N 49°12' W 123°55'0 0.1
2017-Sep-27 06:23N 49°12' W 123°55'0 0.2
2017-Sep-27 05:54N 49°12' W 123°55'0 0.0
2017-Sep-27 05:30N 49°12' W 123°55'0 0.1
2017-Sep-27 04:56N 49°12' W 123°55'0 0.0
2017-Sep-27 04:27N 49°12' W 123°55'0 0.1
2017-Sep-27 03:50N 49°12' W 123°55'0 0.1
2017-Sep-27 03:29N 49°12' W 123°55'0 0.0
2017-Sep-27 02:45N 49°12' W 123°55'0 0.2
2017-Sep-27 02:29N 49°12' W 123°55'0 0.0
2017-Sep-27 01:59N 49°12' W 123°55'0 0.0
2017-Sep-27 01:29N 49°12' W 123°55'0 0.1
2017-Sep-27 00:59N 49°12' W 123°55'0 0.0
2017-Sep-27 00:26N 49°12' W 123°55'0 0.1
2017-Sep-26 23:59N 49°12' W 123°55'0 0.0
2017-Sep-26 23:29N 49°12' W 123°55'0 0.1
2017-Sep-26 22:59N 49°12' W 123°55'0 0.1
2017-Sep-26 22:23N 49°12' W 123°55'0 0.0
2017-Sep-26 21:59N 49°12' W 123°55'0 0.1
2017-Sep-26 21:29N 49°12' W 123°55'0 0.1
2017-Sep-26 20:56N 49°12' W 123°55'0 0.1
2017-Sep-26 20:26N 49°12' W 123°55'0 0.1
2017-Sep-26 19:59N 49°12' W 123°55'0 0.1
2017-Sep-26 19:29N 49°12' W 123°55'0 0.1
2017-Sep-26 18:59N 49°12' W 123°55'0 0.0
2017-Sep-26 18:26N 49°12' W 123°55'  

Dump ship's entire track history